sensor_id;sensor_type;location;lat;lon;timestamp;P1;durP1;ratioP1;P2;durP2;ratioP2
21258;SDS011;10787;53.364;-1.480;2023-05-20T00:02:21;27.33;;;15.80;;
21258;SDS011;10787;53.364;-1.480;2023-05-20T00:05:05;28.97;;;15.47;;
21258;SDS011;10787;53.364;-1.480;2023-05-20T00:07:50;23.80;;;16.17;;
21258;SDS011;10787;53.364;-1.480;2023-05-20T00:10:35;26.50;;;16.13;;
21258;SDS011;10787;53.364;-1.480;2023-05-20T00:13:19;29.13;;;16.60;;
21258;SDS011;10787;53.364;-1.480;2023-05-20T00:16:03;28.60;;;16.03;;
21258;SDS011;10787;53.364;-1.480;2023-05-20T00:18:48;27.83;;;16.60;;
21258;SDS011;10787;53.364;-1.480;2023-05-20T00:21:33;30.07;;;16.93;;
21258;SDS011;10787;53.364;-1.480;2023-05-20T00:24:17;24.87;;;15.50;;
21258;SDS011;10787;53.364;-1.480;2023-05-20T00:27:01;24.57;;;14.70;;
21258;SDS011;10787;53.364;-1.480;2023-05-20T00:29:46;21.13;;;14.03;;
21258;SDS011;10787;53.364;-1.480;2023-05-20T00:32:30;22.73;;;14.13;;
21258;SDS011;10787;53.364;-1.480;2023-05-20T00:35:14;23.37;;;13.23;;
21258;SDS011;10787;53.364;-1.480;2023-05-20T00:37:59;28.07;;;14.57;;
21258;SDS011;10787;53.364;-1.480;2023-05-20T00:40:43;23.93;;;14.47;;
21258;SDS011;10787;53.364;-1.480;2023-05-20T00:43:28;23.40;;;14.53;;
21258;SDS011;10787;53.364;-1.480;2023-05-20T00:46:12;24.90;;;13.57;;
21258;SDS011;10787;53.364;-1.480;2023-05-20T00:48:56;22.40;;;13.93;;
21258;SDS011;10787;53.364;-1.480;2023-05-20T00:51:41;26.03;;;14.07;;
21258;SDS011;10787;53.364;-1.480;2023-05-20T00:54:26;25.60;;;14.90;;
21258;SDS011;10787;53.364;-1.480;2023-05-20T00:57:10;26.63;;;14.63;;
21258;SDS011;10787;53.364;-1.480;2023-05-20T00:59:55;27.60;;;14.37;;
21258;SDS011;10787;53.364;-1.480;2023-05-20T01:02:40;26.73;;;14.63;;
21258;SDS011;10787;53.364;-1.480;2023-05-20T01:05:24;25.23;;;14.37;;
21258;SDS011;10787;53.364;-1.480;2023-05-20T01:08:08;26.37;;;14.40;;
21258;SDS011;10787;53.364;-1.480;2023-05-20T01:13:53;23.57;;;12.63;;
21258;SDS011;10787;53.364;-1.480;2023-05-20T01:16:41;25.67;;;13.93;;
21258;SDS011;10787;53.364;-1.480;2023-05-20T01:19:34;23.53;;;13.40;;
21258;SDS011;10787;53.364;-1.480;2023-05-20T01:22:24;27.47;;;13.20;;
21258;SDS011;10787;53.364;-1.480;2023-05-20T01:25:09;21.67;;;13.40;;
21258;SDS011;10787;53.364;-1.480;2023-05-20T01:27:54;23.63;;;12.93;;
21258;SDS011;10787;53.364;-1.480;2023-05-20T01:30:44;20.80;;;12.27;;
21258;SDS011;10787;53.364;-1.480;2023-05-20T01:33:34;19.70;;;12.03;;
21258;SDS011;10787;53.364;-1.480;2023-05-20T01:36:20;25.70;;;12.40;;
21258;SDS011;10787;53.364;-1.480;2023-05-20T01:39:05;22.47;;;12.20;;
21258;SDS011;10787;53.364;-1.480;2023-05-20T01:41:49;25.80;;;12.43;;
21258;SDS011;10787;53.364;-1.480;2023-05-20T01:44:34;22.53;;;12.30;;
21258;SDS011;10787;53.364;-1.480;2023-05-20T01:47:19;24.60;;;12.43;;
21258;SDS011;10787;53.364;-1.480;2023-05-20T01:50:03;20.83;;;11.63;;
21258;SDS011;10787;53.364;-1.480;2023-05-20T01:52:48;24.30;;;12.27;;
21258;SDS011;10787;53.364;-1.480;2023-05-20T01:55:32;24.50;;;12.70;;
21258;SDS011;10787;53.364;-1.480;2023-05-20T01:58:17;23.33;;;12.87;;
21258;SDS011;10787;53.364;-1.480;2023-05-20T02:01:01;22.73;;;12.53;;
21258;SDS011;10787;53.364;-1.480;2023-05-20T02:03:46;24.67;;;13.17;;
21258;SDS011;10787;53.364;-1.480;2023-05-20T02:06:31;24.10;;;13.13;;
21258;SDS011;10787;53.364;-1.480;2023-05-20T02:09:17;28.13;;;13.57;;
21258;SDS011;10787;53.364;-1.480;2023-05-20T02:12:01;27.27;;;13.27;;
21258;SDS011;10787;53.364;-1.480;2023-05-20T02:14:46;20.57;;;12.30;;
21258;SDS011;10787;53.364;-1.480;2023-05-20T02:17:31;24.00;;;12.53;;
21258;SDS011;10787;53.364;-1.480;2023-05-20T02:20:15;23.60;;;12.50;;
21258;SDS011;10787;53.364;-1.480;2023-05-20T02:22:59;27.20;;;12.70;;
21258;SDS011;10787;53.364;-1.480;2023-05-20T02:25:43;24.07;;;12.60;;
21258;SDS011;10787;53.364;-1.480;2023-05-20T02:28:28;25.80;;;12.83;;
21258;SDS011;10787;53.364;-1.480;2023-05-20T02:31:13;25.27;;;12.77;;
21258;SDS011;10787;53.364;-1.480;2023-05-20T02:33:57;24.07;;;14.33;;
21258;SDS011;10787;53.364;-1.480;2023-05-20T02:36:41;25.73;;;14.30;;
21258;SDS011;10787;53.364;-1.480;2023-05-20T02:39:26;24.80;;;14.33;;
21258;SDS011;10787;53.364;-1.480;2023-05-20T02:42:11;27.37;;;15.17;;
21258;SDS011;10787;53.364;-1.480;2023-05-20T02:44:55;29.70;;;16.17;;
21258;SDS011;10787;53.364;-1.480;2023-05-20T02:47:41;29.53;;;16.90;;
21258;SDS011;10787;53.364;-1.480;2023-05-20T02:50:26;32.27;;;17.70;;
21258;SDS011;10787;53.364;-1.480;2023-05-20T02:53:10;32.97;;;18.30;;
21258;SDS011;10787;53.364;-1.480;2023-05-20T02:55:54;33.07;;;17.53;;
21258;SDS011;10787;53.364;-1.480;2023-05-20T02:58:38;32.10;;;17.33;;
21258;SDS011;10787;53.364;-1.480;2023-05-20T03:01:22;29.60;;;16.10;;
21258;SDS011;10787;53.364;-1.480;2023-05-20T03:04:06;28.57;;;16.03;;
21258;SDS011;10787;53.364;-1.480;2023-05-20T03:06:51;27.03;;;15.60;;
21258;SDS011;10787;53.364;-1.480;2023-05-20T03:09:35;29.07;;;15.50;;
21258;SDS011;10787;53.364;-1.480;2023-05-20T03:12:20;25.73;;;15.47;;
21258;SDS011;10787;53.364;-1.480;2023-05-20T03:15:05;28.57;;;15.10;;
21258;SDS011;10787;53.364;-1.480;2023-05-20T03:17:49;25.63;;;14.77;;
21258;SDS011;10787;53.364;-1.480;2023-05-20T03:20:34;26.00;;;14.20;;
21258;SDS011;10787;53.364;-1.480;2023-05-20T03:23:21;24.30;;;14.70;;
21258;SDS011;10787;53.364;-1.480;2023-05-20T03:26:05;27.90;;;14.73;;
21258;SDS011;10787;53.364;-1.480;2023-05-20T03:28:49;26.00;;;14.80;;
21258;SDS011;10787;53.364;-1.480;2023-05-20T03:31:34;24.83;;;15.00;;
21258;SDS011;10787;53.364;-1.480;2023-05-20T03:34:19;26.10;;;13.90;;
21258;SDS011;10787;53.364;-1.480;2023-05-20T03:37:03;26.00;;;14.77;;
21258;SDS011;10787;53.364;-1.480;2023-05-20T03:39:48;27.33;;;15.00;;
21258;SDS011;10787;53.364;-1.480;2023-05-20T03:42:33;26.43;;;14.87;;
21258;SDS011;10787;53.364;-1.480;2023-05-20T03:45:17;25.47;;;14.03;;
21258;SDS011;10787;53.364;-1.480;2023-05-20T03:48:01;27.83;;;14.43;;
21258;SDS011;10787;53.364;-1.480;2023-05-20T03:50:46;25.47;;;14.00;;
21258;SDS011;10787;53.364;-1.480;2023-05-20T03:53:30;24.23;;;15.40;;
21258;SDS011;10787;53.364;-1.480;2023-05-20T03:56:14;26.67;;;15.63;;
21258;SDS011;10787;53.364;-1.480;2023-05-20T03:58:58;29.63;;;16.40;;
21258;SDS011;10787;53.364;-1.480;2023-05-20T04:01:43;27.73;;;15.80;;
21258;SDS011;10787;53.364;-1.480;2023-05-20T04:04:28;31.37;;;16.13;;
21258;SDS011;10787;53.364;-1.480;2023-05-20T04:07:13;27.33;;;17.23;;
21258;SDS011;10787;53.364;-1.480;2023-05-20T04:09:57;27.00;;;15.70;;
21258;SDS011;10787;53.364;-1.480;2023-05-20T04:12:42;28.60;;;15.97;;
21258;SDS011;10787;53.364;-1.480;2023-05-20T04:15:26;34.23;;;20.00;;
21258;SDS011;10787;53.364;-1.480;2023-05-20T04:18:12;43.70;;;21.43;;
21258;SDS011;10787;53.364;-1.480;2023-05-20T04:20:57;39.83;;;21.33;;
21258;SDS011;10787;53.364;-1.480;2023-05-20T04:23:44;47.03;;;24.23;;
21258;SDS011;10787;53.364;-1.480;2023-05-20T04:26:28;45.37;;;23.23;;
21258;SDS011;10787;53.364;-1.480;2023-05-20T04:29:12;47.57;;;25.23;;
21258;SDS011;10787;53.364;-1.480;2023-05-20T04:31:59;45.30;;;24.70;;
21258;SDS011;10787;53.364;-1.480;2023-05-20T04:34:44;43.40;;;23.60;;
21258;SDS011;10787;53.364;-1.480;2023-05-20T04:37:28;47.10;;;23.80;;
21258;SDS011;10787;53.364;-1.480;2023-05-20T04:40:14;38.50;;;21.90;;
21258;SDS011;10787;53.364;-1.480;2023-05-20T04:42:59;40.07;;;22.67;;
21258;SDS011;10787;53.364;-1.480;2023-05-20T04:45:44;42.57;;;21.93;;
21258;SDS011;10787;53.364;-1.480;2023-05-20T04:48:31;37.23;;;22.17;;
21258;SDS011;10787;53.364;-1.480;2023-05-20T04:51:15;38.97;;;21.00;;
21258;SDS011;10787;53.364;-1.480;2023-05-20T04:54:00;36.17;;;19.60;;
21258;SDS011;10787;53.364;-1.480;2023-05-20T04:56:44;36.70;;;20.13;;
21258;SDS011;10787;53.364;-1.480;2023-05-20T04:59:29;36.70;;;20.07;;
21258;SDS011;10787;53.364;-1.480;2023-05-20T05:02:13;36.60;;;20.13;;
21258;SDS011;10787;53.364;-1.480;2023-05-20T05:04:58;38.37;;;20.77;;
21258;SDS011;10787;53.364;-1.480;2023-05-20T05:07:43;39.90;;;21.33;;
21258;SDS011;10787;53.364;-1.480;2023-05-20T05:10:27;42.10;;;21.97;;
21258;SDS011;10787;53.364;-1.480;2023-05-20T05:13:11;41.43;;;22.53;;
21258;SDS011;10787;53.364;-1.480;2023-05-20T05:15:59;38.10;;;21.37;;
21258;SDS011;10787;53.364;-1.480;2023-05-20T05:18:44;44.47;;;22.20;;
21258;SDS011;10787;53.364;-1.480;2023-05-20T05:21:28;43.13;;;23.60;;
21258;SDS011;10787;53.364;-1.480;2023-05-20T05:24:12;46.80;;;25.30;;
21258;SDS011;10787;53.364;-1.480;2023-05-20T05:26:56;43.43;;;24.93;;
21258;SDS011;10787;53.364;-1.480;2023-05-20T05:29:40;48.60;;;26.07;;
21258;SDS011;10787;53.364;-1.480;2023-05-20T05:32:25;48.63;;;25.37;;
21258;SDS011;10787;53.364;-1.480;2023-05-20T05:35:09;46.83;;;25.10;;
21258;SDS011;10787;53.364;-1.480;2023-05-20T05:37:53;47.20;;;25.63;;
21258;SDS011;10787;53.364;-1.480;2023-05-20T05:40:38;45.00;;;25.53;;
21258;SDS011;10787;53.364;-1.480;2023-05-20T05:43:22;46.30;;;25.70;;
21258;SDS011;10787;53.364;-1.480;2023-05-20T05:46:07;42.90;;;24.77;;
21258;SDS011;10787;53.364;-1.480;2023-05-20T05:48:52;47.23;;;25.23;;
21258;SDS011;10787;53.364;-1.480;2023-05-20T05:51:36;43.10;;;24.87;;
21258;SDS011;10787;53.364;-1.480;2023-05-20T05:54:21;46.23;;;24.87;;
21258;SDS011;10787;53.364;-1.480;2023-05-20T05:57:05;45.80;;;24.40;;
21258;SDS011;10787;53.364;-1.480;2023-05-20T05:59:51;43.93;;;23.63;;
21258;SDS011;10787;53.364;-1.480;2023-05-20T06:02:36;44.30;;;23.77;;
21258;SDS011;10787;53.364;-1.480;2023-05-20T06:05:20;45.73;;;24.27;;
21258;SDS011;10787;53.364;-1.480;2023-05-20T06:08:06;44.00;;;24.50;;
21258;SDS011;10787;53.364;-1.480;2023-05-20T06:10:50;42.67;;;23.97;;
21258;SDS011;10787;53.364;-1.480;2023-05-20T06:13:35;41.60;;;23.83;;
21258;SDS011;10787;53.364;-1.480;2023-05-20T06:16:20;41.07;;;22.73;;
21258;SDS011;10787;53.364;-1.480;2023-05-20T06:19:07;43.87;;;24.10;;
21258;SDS011;10787;53.364;-1.480;2023-05-20T06:21:54;43.40;;;23.80;;
21258;SDS011;10787;53.364;-1.480;2023-05-20T06:24:40;42.47;;;24.13;;
21258;SDS011;10787;53.364;-1.480;2023-05-20T06:27:25;43.47;;;23.90;;
21258;SDS011;10787;53.364;-1.480;2023-05-20T06:30:10;47.30;;;23.63;;
21258;SDS011;10787;53.364;-1.480;2023-05-20T06:32:54;46.03;;;24.13;;
21258;SDS011;10787;53.364;-1.480;2023-05-20T06:35:39;48.20;;;24.13;;
21258;SDS011;10787;53.364;-1.480;2023-05-20T06:38:25;47.17;;;25.30;;
21258;SDS011;10787;53.364;-1.480;2023-05-20T06:41:11;48.38;;;25.88;;
21258;SDS011;10787;53.364;-1.480;2023-05-20T06:43:56;46.20;;;25.97;;
21258;SDS011;10787;53.364;-1.480;2023-05-20T06:46:40;47.70;;;25.77;;
21258;SDS011;10787;53.364;-1.480;2023-05-20T06:49:24;48.83;;;26.03;;
21258;SDS011;10787;53.364;-1.480;2023-05-20T06:52:08;51.17;;;26.83;;
21258;SDS011;10787;53.364;-1.480;2023-05-20T06:54:54;45.70;;;25.33;;
21258;SDS011;10787;53.364;-1.480;2023-05-20T06:57:37;53.07;;;25.93;;
21258;SDS011;10787;53.364;-1.480;2023-05-20T07:00:22;46.57;;;26.00;;
21258;SDS011;10787;53.364;-1.480;2023-05-20T07:03:06;52.67;;;26.77;;
21258;SDS011;10787;53.364;-1.480;2023-05-20T07:05:51;45.77;;;24.50;;
21258;SDS011;10787;53.364;-1.480;2023-05-20T07:08:36;48.60;;;25.63;;
21258;SDS011;10787;53.364;-1.480;2023-05-20T07:11:20;51.03;;;27.33;;
21258;SDS011;10787;53.364;-1.480;2023-05-20T07:14:04;44.17;;;24.53;;
21258;SDS011;10787;53.364;-1.480;2023-05-20T07:16:49;47.80;;;25.60;;
21258;SDS011;10787;53.364;-1.480;2023-05-20T07:19:34;48.90;;;25.80;;
21258;SDS011;10787;53.364;-1.480;2023-05-20T07:22:18;49.83;;;25.90;;
21258;SDS011;10787;53.364;-1.480;2023-05-20T07:25:03;43.10;;;24.63;;
21258;SDS011;10787;53.364;-1.480;2023-05-20T07:27:48;45.58;;;24.48;;
21258;SDS011;10787;53.364;-1.480;2023-05-20T07:30:32;43.67;;;24.25;;
21258;SDS011;10787;53.364;-1.480;2023-05-20T07:33:16;43.72;;;23.55;;
21258;SDS011;10787;53.364;-1.480;2023-05-20T07:36:01;46.87;;;24.40;;
21258;SDS011;10787;53.364;-1.480;2023-05-20T07:38:45;46.10;;;23.60;;
21258;SDS011;10787;53.364;-1.480;2023-05-20T07:41:30;37.80;;;22.17;;
21258;SDS011;10787;53.364;-1.480;2023-05-20T07:44:15;41.20;;;21.52;;
21258;SDS011;10787;53.364;-1.480;2023-05-20T07:47:01;35.55;;;21.90;;
21258;SDS011;10787;53.364;-1.480;2023-05-20T07:49:45;36.85;;;21.98;;
21258;SDS011;10787;53.364;-1.480;2023-05-20T07:52:30;34.58;;;18.83;;
21258;SDS011;10787;53.364;-1.480;2023-05-20T07:55:14;32.88;;;17.45;;
21258;SDS011;10787;53.364;-1.480;2023-05-20T07:57:59;30.63;;;17.27;;
21258;SDS011;10787;53.364;-1.480;2023-05-20T08:00:43;28.67;;;15.07;;
21258;SDS011;10787;53.364;-1.480;2023-05-20T08:03:28;27.42;;;15.13;;
21258;SDS011;10787;53.364;-1.480;2023-05-20T08:06:12;27.35;;;15.98;;
21258;SDS011;10787;53.364;-1.480;2023-05-20T08:08:57;34.00;;;17.40;;
21258;SDS011;10787;53.364;-1.480;2023-05-20T08:11:41;30.48;;;17.15;;
21258;SDS011;10787;53.364;-1.480;2023-05-20T08:14:25;30.88;;;16.23;;
21258;SDS011;10787;53.364;-1.480;2023-05-20T08:17:09;29.02;;;15.02;;
21258;SDS011;10787;53.364;-1.480;2023-05-20T08:19:53;27.35;;;14.70;;
21258;SDS011;10787;53.364;-1.480;2023-05-20T08:22:37;28.90;;;15.90;;
21258;SDS011;10787;53.364;-1.480;2023-05-20T08:25:22;30.30;;;15.30;;
21258;SDS011;10787;53.364;-1.480;2023-05-20T08:28:06;29.88;;;15.75;;
21258;SDS011;10787;53.364;-1.480;2023-05-20T08:30:51;28.95;;;15.80;;
21258;SDS011;10787;53.364;-1.480;2023-05-20T08:33:36;36.15;;;17.27;;
21258;SDS011;10787;53.364;-1.480;2023-05-20T08:36:20;26.92;;;16.33;;
21258;SDS011;10787;53.364;-1.480;2023-05-20T08:39:04;25.08;;;14.73;;
21258;SDS011;10787;53.364;-1.480;2023-05-20T08:41:48;30.80;;;15.27;;
21258;SDS011;10787;53.364;-1.480;2023-05-20T08:44:33;23.17;;;13.70;;
21258;SDS011;10787;53.364;-1.480;2023-05-20T08:47:19;20.67;;;11.90;;
21258;SDS011;10787;53.364;-1.480;2023-05-20T08:50:04;21.75;;;11.90;;
21258;SDS011;10787;53.364;-1.480;2023-05-20T08:52:49;22.63;;;12.98;;
21258;SDS011;10787;53.364;-1.480;2023-05-20T08:55:41;23.17;;;13.02;;
21258;SDS011;10787;53.364;-1.480;2023-05-20T08:58:26;17.23;;;11.10;;
21258;SDS011;10787;53.364;-1.480;2023-05-20T09:01:12;23.40;;;11.52;;
21258;SDS011;10787;53.364;-1.480;2023-05-20T09:03:56;21.20;;;11.95;;
21258;SDS011;10787;53.364;-1.480;2023-05-20T09:06:43;17.98;;;11.63;;
21258;SDS011;10787;53.364;-1.480;2023-05-20T09:09:32;24.95;;;12.52;;
21258;SDS011;10787;53.364;-1.480;2023-05-20T09:12:18;18.90;;;10.88;;
21258;SDS011;10787;53.364;-1.480;2023-05-20T09:15:04;17.55;;;9.88;;
21258;SDS011;10787;53.364;-1.480;2023-05-20T09:17:49;20.20;;;11.85;;
21258;SDS011;10787;53.364;-1.480;2023-05-20T09:20:34;18.55;;;11.80;;
21258;SDS011;10787;53.364;-1.480;2023-05-20T09:23:20;16.63;;;9.43;;
21258;SDS011;10787;53.364;-1.480;2023-05-20T09:26:04;15.60;;;9.43;;
21258;SDS011;10787;53.364;-1.480;2023-05-20T09:28:49;16.25;;;9.18;;
21258;SDS011;10787;53.364;-1.480;2023-05-20T09:31:34;13.68;;;8.70;;
21258;SDS011;10787;53.364;-1.480;2023-05-20T09:34:21;15.75;;;8.30;;
21258;SDS011;10787;53.364;-1.480;2023-05-20T09:37:06;14.05;;;8.35;;
21258;SDS011;10787;53.364;-1.480;2023-05-20T09:39:55;16.25;;;8.40;;
21258;SDS011;10787;53.364;-1.480;2023-05-20T09:42:46;15.30;;;7.82;;
21258;SDS011;10787;53.364;-1.480;2023-05-20T09:45:46;12.60;;;7.40;;
21258;SDS011;10787;53.364;-1.480;2023-05-20T09:48:31;13.75;;;6.70;;
21258;SDS011;10787;53.364;-1.480;2023-05-20T09:51:19;12.73;;;7.07;;
21258;SDS011;10787;53.364;-1.480;2023-05-20T09:54:06;15.00;;;7.00;;
21258;SDS011;10787;53.364;-1.480;2023-05-20T09:56:51;12.88;;;6.10;;
21258;SDS011;10787;53.364;-1.480;2023-05-20T09:59:36;10.25;;;6.18;;
21258;SDS011;10787;53.364;-1.480;2023-05-20T10:02:21;11.68;;;6.43;;
21258;SDS011;10787;53.364;-1.480;2023-05-20T10:05:06;13.30;;;6.88;;
21258;SDS011;10787;53.364;-1.480;2023-05-20T10:17:16;10.38;;;6.68;;
21258;SDS011;10787;53.364;-1.480;2023-05-20T10:20:06;11.95;;;7.22;;
21258;SDS011;10787;53.364;-1.480;2023-05-20T10:22:57;10.95;;;7.32;;
21258;SDS011;10787;53.364;-1.480;2023-05-20T10:25:48;12.77;;;7.07;;
21258;SDS011;10787;53.364;-1.480;2023-05-20T10:28:37;11.80;;;6.55;;
21258;SDS011;10787;53.364;-1.480;2023-05-20T10:31:23;10.95;;;6.30;;
21258;SDS011;10787;53.364;-1.480;2023-05-20T10:34:13;11.63;;;6.82;;
21258;SDS011;10787;53.364;-1.480;2023-05-20T10:36:59;11.23;;;6.97;;
21258;SDS011;10787;53.364;-1.480;2023-05-20T10:39:43;11.57;;;6.60;;
21258;SDS011;10787;53.364;-1.480;2023-05-20T10:42:28;11.88;;;7.60;;
21258;SDS011;10787;53.364;-1.480;2023-05-20T10:45:25;11.68;;;7.20;;
21258;SDS011;10787;53.364;-1.480;2023-05-20T10:48:10;15.07;;;7.47;;
21258;SDS011;10787;53.364;-1.480;2023-05-20T10:51:04;12.38;;;7.60;;
21258;SDS011;10787;53.364;-1.480;2023-05-20T10:53:56;10.48;;;7.03;;
21258;SDS011;10787;53.364;-1.480;2023-05-20T10:56:49;12.73;;;7.28;;
21258;SDS011;10787;53.364;-1.480;2023-05-20T10:59:35;11.55;;;6.85;;
21258;SDS011;10787;53.364;-1.480;2023-05-20T11:02:19;11.38;;;7.15;;
21258;SDS011;10787;53.364;-1.480;2023-05-20T11:05:10;11.55;;;7.25;;
21258;SDS011;10787;53.364;-1.480;2023-05-20T11:08:01;9.30;;;5.70;;
21258;SDS011;10787;53.364;-1.480;2023-05-20T11:10:47;9.77;;;5.43;;
21258;SDS011;10787;53.364;-1.480;2023-05-20T11:13:31;9.73;;;6.60;;
21258;SDS011;10787;53.364;-1.480;2023-05-20T11:16:15;10.60;;;6.15;;
21258;SDS011;10787;53.364;-1.480;2023-05-20T11:18:59;11.57;;;6.32;;
21258;SDS011;10787;53.364;-1.480;2023-05-20T11:21:47;10.68;;;5.95;;
21258;SDS011;10787;53.364;-1.480;2023-05-20T11:24:31;9.90;;;6.53;;
21258;SDS011;10787;53.364;-1.480;2023-05-20T11:27:15;11.40;;;6.18;;
21258;SDS011;10787;53.364;-1.480;2023-05-20T11:30:00;11.80;;;6.20;;
21258;SDS011;10787;53.364;-1.480;2023-05-20T11:35:51;10.55;;;6.45;;
21258;SDS011;10787;53.364;-1.480;2023-05-20T11:38:36;10.05;;;6.80;;
21258;SDS011;10787;53.364;-1.480;2023-05-20T11:41:23;10.77;;;6.55;;
21258;SDS011;10787;53.364;-1.480;2023-05-20T11:44:09;11.23;;;6.40;;
21258;SDS011;10787;53.364;-1.480;2023-05-20T11:47:00;10.73;;;6.57;;
21258;SDS011;10787;53.364;-1.480;2023-05-20T11:49:47;9.20;;;6.70;;
21258;SDS011;10787;53.364;-1.480;2023-05-20T11:52:32;10.68;;;6.22;;
21258;SDS011;10787;53.364;-1.480;2023-05-20T11:55:17;8.00;;;6.10;;
21258;SDS011;10787;53.364;-1.480;2023-05-20T11:58:01;12.05;;;6.18;;
21258;SDS011;10787;53.364;-1.480;2023-05-20T12:00:46;14.27;;;8.70;;
21258;SDS011;10787;53.364;-1.480;2023-05-20T12:03:31;12.52;;;7.75;;
21258;SDS011;10787;53.364;-1.480;2023-05-20T12:06:15;10.88;;;6.50;;
21258;SDS011;10787;53.364;-1.480;2023-05-20T12:09:01;8.68;;;5.25;;
21258;SDS011;10787;53.364;-1.480;2023-05-20T12:11:49;9.80;;;5.45;;
21258;SDS011;10787;53.364;-1.480;2023-05-20T12:14:34;7.00;;;5.60;;
21258;SDS011;10787;53.364;-1.480;2023-05-20T12:17:18;6.75;;;5.10;;
21258;SDS011;10787;53.364;-1.480;2023-05-20T12:20:02;8.35;;;5.30;;
21258;SDS011;10787;53.364;-1.480;2023-05-20T12:22:49;10.85;;;5.75;;
21258;SDS011;10787;53.364;-1.480;2023-05-20T12:25:34;8.82;;;5.53;;
21258;SDS011;10787;53.364;-1.480;2023-05-20T12:28:18;6.53;;;5.40;;
21258;SDS011;10787;53.364;-1.480;2023-05-20T12:31:02;9.40;;;6.53;;
21258;SDS011;10787;53.364;-1.480;2023-05-20T12:33:46;7.13;;;5.63;;
21258;SDS011;10787;53.364;-1.480;2023-05-20T12:36:31;9.18;;;5.80;;
21258;SDS011;10787;53.364;-1.480;2023-05-20T12:39:16;7.18;;;5.38;;
21258;SDS011;10787;53.364;-1.480;2023-05-20T12:42:01;8.65;;;5.47;;
21258;SDS011;10787;53.364;-1.480;2023-05-20T12:44:46;8.95;;;6.93;;
21258;SDS011;10787;53.364;-1.480;2023-05-20T12:47:31;7.07;;;5.40;;
21258;SDS011;10787;53.364;-1.480;2023-05-20T12:50:15;7.80;;;5.22;;
21258;SDS011;10787;53.364;-1.480;2023-05-20T12:52:59;7.40;;;5.38;;
21258;SDS011;10787;53.364;-1.480;2023-05-20T12:55:43;6.57;;;4.93;;
21258;SDS011;10787;53.364;-1.480;2023-05-20T12:58:27;6.88;;;5.32;;
21258;SDS011;10787;53.364;-1.480;2023-05-20T13:01:12;8.82;;;5.88;;
21258;SDS011;10787;53.364;-1.480;2023-05-20T13:03:56;9.73;;;6.10;;
21258;SDS011;10787;53.364;-1.480;2023-05-20T13:06:40;8.63;;;5.57;;
21258;SDS011;10787;53.364;-1.480;2023-05-20T13:09:25;7.88;;;5.38;;
21258;SDS011;10787;53.364;-1.480;2023-05-20T13:12:09;10.05;;;5.35;;
21258;SDS011;10787;53.364;-1.480;2023-05-20T13:14:53;6.90;;;5.47;;
21258;SDS011;10787;53.364;-1.480;2023-05-20T13:17:38;6.65;;;5.35;;
21258;SDS011;10787;53.364;-1.480;2023-05-20T13:20:23;8.10;;;5.05;;
21258;SDS011;10787;53.364;-1.480;2023-05-20T13:23:07;8.18;;;5.28;;
21258;SDS011;10787;53.364;-1.480;2023-05-20T13:25:51;7.88;;;5.35;;
21258;SDS011;10787;53.364;-1.480;2023-05-20T13:28:35;5.90;;;5.15;;
21258;SDS011;10787;53.364;-1.480;2023-05-20T13:31:19;6.50;;;4.97;;
21258;SDS011;10787;53.364;-1.480;2023-05-20T13:34:04;6.22;;;5.15;;
21258;SDS011;10787;53.364;-1.480;2023-05-20T13:36:48;6.55;;;4.80;;
21258;SDS011;10787;53.364;-1.480;2023-05-20T13:39:33;8.40;;;5.05;;
21258;SDS011;10787;53.364;-1.480;2023-05-20T13:42:18;5.80;;;5.05;;
21258;SDS011;10787;53.364;-1.480;2023-05-20T13:45:04;6.30;;;5.13;;
21258;SDS011;10787;53.364;-1.480;2023-05-20T13:47:48;7.10;;;5.28;;
21258;SDS011;10787;53.364;-1.480;2023-05-20T13:50:32;7.82;;;4.93;;
21258;SDS011;10787;53.364;-1.480;2023-05-20T13:53:17;7.07;;;5.07;;
21258;SDS011;10787;53.364;-1.480;2023-05-20T13:56:01;17.15;;;5.68;;
21258;SDS011;10787;53.364;-1.480;2023-05-20T13:58:46;7.13;;;5.00;;
21258;SDS011;10787;53.364;-1.480;2023-05-20T14:01:31;8.02;;;5.00;;
21258;SDS011;10787;53.364;-1.480;2023-05-20T14:04:18;6.50;;;5.13;;
21258;SDS011;10787;53.364;-1.480;2023-05-20T14:07:03;7.95;;;4.93;;
21258;SDS011;10787;53.364;-1.480;2023-05-20T14:09:48;7.63;;;5.40;;
21258;SDS011;10787;53.364;-1.480;2023-05-20T14:12:32;7.25;;;5.78;;
21258;SDS011;10787;53.364;-1.480;2023-05-20T14:15:16;12.43;;;6.55;;
21258;SDS011;10787;53.364;-1.480;2023-05-20T14:18:01;10.55;;;7.28;;
21258;SDS011;10787;53.364;-1.480;2023-05-20T14:20:45;8.07;;;6.18;;
21258;SDS011;10787;53.364;-1.480;2023-05-20T14:23:30;7.32;;;6.00;;
21258;SDS011;10787;53.364;-1.480;2023-05-20T14:26:14;8.25;;;6.85;;
21258;SDS011;10787;53.364;-1.480;2023-05-20T14:28:59;6.20;;;5.60;;
21258;SDS011;10787;53.364;-1.480;2023-05-20T14:31:43;8.05;;;5.78;;
21258;SDS011;10787;53.364;-1.480;2023-05-20T14:34:28;7.50;;;5.38;;
21258;SDS011;10787;53.364;-1.480;2023-05-20T14:37:12;9.25;;;5.97;;
21258;SDS011;10787;53.364;-1.480;2023-05-20T14:39:58;10.15;;;5.32;;
21258;SDS011;10787;53.364;-1.480;2023-05-20T14:42:42;7.90;;;5.88;;
21258;SDS011;10787;53.364;-1.480;2023-05-20T14:45:27;11.35;;;10.25;;
21258;SDS011;10787;53.364;-1.480;2023-05-20T14:48:11;46.33;;;41.35;;
21258;SDS011;10787;53.364;-1.480;2023-05-20T14:50:55;7.40;;;6.57;;
21258;SDS011;10787;53.364;-1.480;2023-05-20T14:53:42;8.90;;;5.60;;
21258;SDS011;10787;53.364;-1.480;2023-05-20T14:56:26;6.07;;;5.43;;
21258;SDS011;10787;53.364;-1.480;2023-05-20T14:59:10;22.75;;;20.30;;
21258;SDS011;10787;53.364;-1.480;2023-05-20T15:01:54;7.47;;;5.88;;
21258;SDS011;10787;53.364;-1.480;2023-05-20T15:04:38;7.05;;;5.50;;
21258;SDS011;10787;53.364;-1.480;2023-05-20T15:07:24;12.10;;;9.10;;
21258;SDS011;10787;53.364;-1.480;2023-05-20T15:10:09;7.47;;;6.32;;
21258;SDS011;10787;53.364;-1.480;2023-05-20T15:12:53;12.52;;;8.35;;
21258;SDS011;10787;53.364;-1.480;2023-05-20T15:15:38;9.80;;;8.07;;
21258;SDS011;10787;53.364;-1.480;2023-05-20T15:18:22;5.40;;;4.63;;
21258;SDS011;10787;53.364;-1.480;2023-05-20T15:21:07;5.07;;;4.38;;
21258;SDS011;10787;53.364;-1.480;2023-05-20T15:23:51;8.13;;;4.75;;
21258;SDS011;10787;53.364;-1.480;2023-05-20T15:26:36;6.90;;;4.50;;
21258;SDS011;10787;53.364;-1.480;2023-05-20T15:29:21;9.88;;;8.25;;
21258;SDS011;10787;53.364;-1.480;2023-05-20T15:32:06;17.45;;;13.52;;
21258;SDS011;10787;53.364;-1.480;2023-05-20T15:34:50;5.50;;;4.80;;
21258;SDS011;10787;53.364;-1.480;2023-05-20T15:37:35;6.80;;;4.35;;
21258;SDS011;10787;53.364;-1.480;2023-05-20T15:40:19;9.93;;;4.80;;
21258;SDS011;10787;53.364;-1.480;2023-05-20T15:43:04;6.90;;;3.90;;
21258;SDS011;10787;53.364;-1.480;2023-05-20T15:45:49;11.52;;;4.35;;
21258;SDS011;10787;53.364;-1.480;2023-05-20T15:48:34;6.10;;;4.72;;
21258;SDS011;10787;53.364;-1.480;2023-05-20T15:51:20;6.05;;;4.07;;
21258;SDS011;10787;53.364;-1.480;2023-05-20T15:54:05;6.75;;;4.13;;
21258;SDS011;10787;53.364;-1.480;2023-05-20T15:56:49;6.35;;;4.70;;
21258;SDS011;10787;53.364;-1.480;2023-05-20T15:59:33;7.05;;;4.10;;
21258;SDS011;10787;53.364;-1.480;2023-05-20T16:02:18;6.10;;;3.83;;
21258;SDS011;10787;53.364;-1.480;2023-05-20T16:05:02;7.78;;;4.47;;
21258;SDS011;10787;53.364;-1.480;2023-05-20T16:07:47;5.93;;;4.30;;
21258;SDS011;10787;53.364;-1.480;2023-05-20T16:10:32;7.07;;;4.22;;
21258;SDS011;10787;53.364;-1.480;2023-05-20T16:13:16;6.80;;;4.10;;
21258;SDS011;10787;53.364;-1.480;2023-05-20T16:16:01;7.63;;;4.43;;